createdAt,value
2019-04-11T00:01:10.113Z,7.10
2019-04-11T00:06:15.589Z,7.20
2019-04-11T00:11:21.894Z,7.30
2019-04-11T00:16:28.953Z,7.20
2019-04-11T00:21:35.637Z,7.00
2019-04-11T00:26:41.332Z,6.90
2019-04-11T00:31:47.947Z,6.90
2019-04-11T00:36:54.800Z,6.80
2019-04-11T00:42:00.292Z,6.80
2019-04-11T00:47:06.852Z,6.80
2019-04-11T00:52:12.196Z,6.80
2019-04-11T00:57:17.528Z,6.80
2019-04-11T01:02:23.166Z,6.80
2019-04-11T01:07:29.103Z,6.80
2019-04-11T01:12:34.489Z,6.80
2019-04-11T01:17:39.824Z,6.70
2019-04-11T01:22:45.132Z,6.70
2019-04-11T01:27:51.548Z,6.70
2019-04-11T01:32:56.980Z,6.80
2019-04-11T01:38:02.286Z,6.80
2019-04-11T01:43:08.121Z,6.60
2019-04-11T01:48:19.509Z,6.50
2019-04-11T01:53:24.936Z,6.40
2019-04-11T01:58:30.924Z,6.40
2019-04-11T02:03:55.310Z,6.40
2019-04-11T02:09:01.836Z,6.40
2019-04-11T02:14:15.568Z,6.40
2019-04-11T02:19:16.232Z,6.40
2019-04-11T02:24:30.024Z,6.40
2019-04-11T02:29:35.484Z,6.40
2019-04-11T02:34:41.184Z,6.40
2019-04-11T02:39:47.357Z,6.40
2019-04-11T02:45:09.244Z,6.30
2019-04-11T02:50:00.891Z,6.30
2019-04-11T02:55:09.704Z,6.40
2019-04-11T03:00:13.363Z,6.40
2019-04-11T03:05:20.890Z,6.50
2019-04-11T03:10:27.205Z,6.50
2019-04-11T03:15:48.824Z,6.60
2019-04-11T03:20:48.132Z,6.50
2019-04-11T03:25:49.871Z,6.40
2019-04-11T03:31:26.310Z,6.40
2019-04-11T03:41:25.276Z,6.20
2019-04-11T03:46:33.880Z,6.20
2019-04-11T03:51:25.624Z,6.30
2019-04-11T03:56:33.003Z,6.30
2019-04-11T04:01:39.870Z,6.30
2019-04-11T04:06:45.876Z,6.30
2019-04-11T04:11:54.577Z,6.20
2019-04-11T04:17:19.285Z,6.20
2019-04-11T04:22:32.230Z,6.10
2019-04-11T04:27:38.770Z,6.00
2019-04-11T04:32:45.182Z,6.00
2019-04-11T04:37:51.913Z,6.00
2019-04-11T04:42:59.165Z,5.90
2019-04-11T04:48:11.165Z,5.80
2019-04-11T04:53:13.568Z,5.60
2019-04-11T04:58:24.320Z,5.60
2019-04-11T05:03:27.725Z,5.60
2019-04-11T05:08:34.757Z,5.60
2019-04-11T05:13:41.948Z,5.70
2019-04-11T05:18:48.463Z,5.70
2019-04-11T05:23:55.184Z,5.70
2019-04-11T05:29:01.210Z,5.80
2019-04-11T05:34:07.798Z,7.10
2019-04-11T05:39:15.948Z,5.80
2019-04-11T05:44:21.008Z,5.80
2019-04-11T05:49:44.993Z,5.90
2019-04-11T05:54:56.066Z,5.80
2019-04-11T06:00:01.391Z,5.80
2019-04-11T06:05:13.250Z,5.90
2019-04-11T06:10:24.099Z,5.90
2019-04-11T06:15:36.215Z,6.10
2019-04-11T06:20:51.951Z,6.20
2019-04-11T06:26:28.546Z,6.30
2019-04-11T06:31:51.621Z,6.30
2019-04-11T06:37:14.641Z,6.30
2019-04-11T06:42:39.192Z,6.40
2019-04-11T06:48:23.726Z,6.40
2019-04-11T06:53:36.399Z,6.50
2019-04-11T06:58:47.597Z,6.60
2019-04-11T07:03:57.501Z,6.60
2019-04-11T07:09:25.936Z,6.60
2019-04-11T07:14:39.753Z,6.60
2019-04-11T07:19:57.494Z,6.70
2019-04-11T07:25:22.298Z,6.70
2019-04-11T07:31:00.368Z,6.80
2019-04-11T07:36:23.403Z,7.00
2019-04-11T07:41:58.085Z,7.00
2019-04-11T07:47:28.207Z,7.00
2019-04-11T07:52:40.003Z,7.20
2019-04-11T07:57:49.029Z,7.30
2019-04-11T08:03:07.958Z,7.40
2019-04-11T08:08:30.244Z,7.40
2019-04-11T08:13:42.885Z,7.60
2019-04-11T08:19:17.244Z,7.60
2019-04-11T08:24:30.051Z,7.70
2019-04-11T08:29:36.021Z,7.80
2019-04-11T08:34:49.097Z,7.80
2019-04-11T08:39:55.791Z,7.70
2019-04-11T08:45:01.096Z,7.90
2019-04-11T08:50:06.987Z,8.00
2019-04-11T08:55:42.075Z,8.20
2019-04-11T09:00:46.277Z,8.50
2019-04-11T09:06:28.403Z,8.70
2019-04-11T09:11:39.517Z,9.00
2019-04-11T09:17:03.841Z,9.20
2019-04-11T09:22:35.353Z,9.40
2019-04-11T09:27:53.962Z,9.60
2019-04-11T09:33:35.072Z,10.10
2019-04-11T09:38:42.290Z,10.20
2019-04-11T09:43:48.458Z,10.20
2019-04-11T09:49:12.348Z,11.00
2019-04-11T09:54:36.955Z,11.60
2019-04-11T09:59:47.675Z,11.80
2019-04-11T10:04:54.365Z,12.20
2019-04-11T10:10:17.611Z,13.20
2019-04-11T10:15:33.732Z,13.30
2019-04-11T10:20:40.499Z,13.00
2019-04-11T10:25:50.083Z,13.00
2019-04-11T10:31:20.547Z,13.10
2019-04-11T10:36:27.838Z,13.20
2019-04-11T10:41:37.950Z,13.10
2019-04-11T10:46:51.460Z,12.90
2019-04-11T10:52:04.375Z,12.90
2019-04-11T10:57:29.881Z,13.00
2019-04-11T11:02:57.842Z,13.60
2019-04-11T11:08:13.306Z,13.60
2019-04-11T11:13:50.134Z,13.60
2019-04-11T11:19:33.551Z,13.10
2019-04-11T11:24:40.250Z,12.80
2019-04-11T11:30:04.416Z,12.80
2019-04-11T11:35:32.337Z,14.20
2019-04-11T11:40:54.227Z,13.40
2019-04-11T11:46:17.832Z,13.00
2019-04-11T11:51:33.280Z,12.70
2019-04-11T11:56:40.271Z,12.60
2019-04-11T12:02:04.706Z,12.10
2019-04-11T12:07:12.643Z,12.50
2019-04-11T12:12:23.863Z,13.10
2019-04-11T12:18:07.428Z,13.50
2019-04-11T12:23:29.368Z,14.70
2019-04-11T12:28:52.486Z,15.80
2019-04-11T12:34:30.261Z,16.40
2019-04-11T12:40:09.849Z,16.00
2019-04-11T12:45:32.853Z,17.10
2019-04-11T12:50:56.446Z,16.90
2019-04-11T12:56:33.243Z,16.40
2019-04-11T13:01:56.300Z,16.60
2019-04-11T13:07:23.735Z,17.50
2019-04-11T13:12:45.286Z,17.50
2019-04-11T13:18:18.996Z,16.40
2019-04-11T13:23:40.599Z,15.60
2019-04-11T13:28:47.867Z,15.60
2019-04-11T13:33:56.070Z,15.90
2019-04-11T13:39:04.232Z,15.10
2019-04-11T13:44:22.087Z,14.90
2019-04-11T13:49:46.491Z,15.40
2019-04-11T13:55:13.411Z,15.20
2019-04-11T14:00:49.941Z,16.30
2019-04-11T14:05:56.667Z,15.30
2019-04-11T14:11:11.220Z,14.50
2019-04-11T14:16:19.334Z,14.00
2019-04-11T14:21:25.125Z,13.50
2019-04-11T14:26:36.430Z,13.00
2019-04-11T14:31:57.151Z,12.80
2019-04-11T14:37:22.867Z,12.80
2019-04-11T14:42:48.002Z,12.60
2019-04-11T14:48:11.373Z,12.40
2019-04-11T14:53:33.159Z,12.40
2019-04-11T14:58:56.443Z,12.50
2019-04-11T15:04:20.872Z,12.50
2019-04-11T15:09:39.261Z,12.50
2019-04-11T15:15:06.728Z,12.30
2019-04-11T15:20:54.988Z,12.20
2019-04-11T15:26:11.239Z,12.00
2019-04-11T15:31:39.570Z,12.00
2019-04-11T15:36:45.998Z,12.00
2019-04-11T15:41:58.143Z,12.00
2019-04-11T15:47:00.879Z,12.20
2019-04-11T15:52:15.681Z,12.20
2019-04-11T15:57:53.130Z,12.70
2019-04-11T16:03:16.453Z,13.00
2019-04-11T16:08:29.531Z,13.40
2019-04-11T16:13:50.847Z,13.90
2019-04-11T16:19:14.741Z,13.00
2019-04-11T16:24:28.171Z,15.70
2019-04-11T16:29:41.077Z,15.70
2019-04-11T16:34:58.885Z,15.60
2019-04-11T16:40:32.263Z,14.60
2019-04-11T16:45:57.493Z,13.20
2019-04-11T16:51:05.605Z,12.10
2019-04-11T16:56:12.574Z,11.80
2019-04-11T17:01:17.645Z,11.70
2019-04-11T17:06:45.112Z,11.40
2019-04-11T17:11:50.614Z,11.10
2019-04-11T17:16:56.316Z,11.00
2019-04-11T17:22:03.086Z,10.70
2019-04-11T17:27:08.967Z,10.40
2019-04-11T17:32:14.642Z,10.30
2019-04-11T17:37:20.218Z,10.10
2019-04-11T17:42:31.026Z,10.00
2019-04-11T17:47:36.654Z,9.90
2019-04-11T17:52:42.328Z,9.70
2019-04-11T17:57:48.000Z,9.60
2019-04-11T18:02:53.769Z,9.40
2019-04-11T18:07:59.503Z,9.30
2019-04-11T18:13:06.072Z,9.10
2019-04-11T18:18:11.623Z,9.00
2019-04-11T18:23:19.673Z,8.80
2019-04-11T18:28:24.376Z,8.70
2019-04-11T18:33:31.763Z,8.50
2019-04-11T18:38:37.071Z,8.50
2019-04-11T18:43:42.387Z,8.30
2019-04-11T18:48:47.904Z,8.20
2019-04-11T18:53:53.301Z,8.30
2019-04-11T18:58:58.906Z,8.30
2019-04-11T19:04:04.259Z,8.20
2019-04-11T19:09:13.842Z,8.20
2019-04-11T19:14:19.164Z,8.20
2019-04-11T19:19:27.304Z,8.10
2019-04-11T19:24:35.603Z,8.00
2019-04-11T19:29:40.434Z,8.00
2019-04-11T19:34:46.035Z,8.00
2019-04-11T19:39:51.793Z,8.00
2019-04-11T19:44:57.299Z,7.90
2019-04-11T19:50:02.912Z,7.90
2019-04-11T19:55:24.387Z,7.90
2019-04-11T20:00:29.990Z,7.90
2019-04-11T20:05:35.527Z,7.80
2019-04-11T20:10:41.091Z,7.80
2019-04-11T20:15:46.616Z,7.80
2019-04-11T20:20:52.391Z,7.80
2019-04-11T20:25:58.957Z,7.70
2019-04-11T20:31:04.614Z,7.80
2019-04-11T20:36:11.542Z,7.70
2019-04-11T20:41:17.843Z,7.60
2019-04-11T20:46:23.415Z,7.60
2019-04-11T20:51:29.472Z,7.50
2019-04-11T20:56:35.154Z,6.90
2019-04-11T21:01:42.037Z,7.40
2019-04-11T21:06:48.439Z,7.20
2019-04-11T21:11:54.695Z,7.20
2019-04-11T21:17:00.486Z,7.10
2019-04-11T21:22:06.528Z,7.00
2019-04-11T21:27:12.003Z,6.90
2019-04-11T21:32:17.388Z,6.70
2019-04-11T21:37:23.686Z,6.60
2019-04-11T21:42:29.162Z,6.50
2019-04-11T21:47:37.389Z,6.40
2019-04-11T21:52:44.268Z,6.20
2019-04-11T21:57:50.396Z,6.10
2019-04-11T22:02:55.960Z,5.90
2019-04-11T22:08:03.697Z,5.80
2019-04-11T22:13:10.046Z,5.60
2019-04-11T22:18:16.814Z,5.60
2019-04-11T22:23:22.333Z,5.50
2019-04-11T22:28:27.628Z,5.30
2019-04-11T22:34:01.127Z,5.20
2019-04-11T22:39:10.440Z,5.20
2019-04-11T22:44:15.764Z,5.10
2019-04-11T22:49:21.055Z,5.00
2019-04-11T22:54:26.375Z,5.00
2019-04-11T22:59:31.705Z,4.90
2019-04-11T23:04:37.996Z,4.80
2019-04-11T23:09:43.392Z,4.70
2019-04-11T23:14:48.707Z,4.60
2019-04-11T23:19:54.006Z,4.50
2019-04-11T23:24:59.299Z,4.40
2019-04-11T23:30:05.019Z,4.20
2019-04-11T23:35:10.324Z,4.20
2019-04-11T23:40:15.608Z,4.00
2019-04-11T23:45:24.103Z,3.80
2019-04-11T23:50:29.483Z,3.70
2019-04-11T23:55:34.778Z,3.60
